Dades meteomassalio
Diari Summary for Noviembre 10, 2017 Units:  Metric    English   Both
« Previous Day
Next Day »
Diari Semanal Mensual Anual Personalitzat
  Maxima: Minima: Mijana:
Temperatura: -17.8 °C -16.2 °C -12 °C
Rosada: -17.8 °C -18.8 °C -15.3 °C
Humitat: Humidity % 51 % 67 %
Velocitat del vent: 0 km/h 12.9 km/h 35.9 km/h
Racha vent: 0 km/h - -
Vent:- - NW
Pressio: 0 hPa 34797.9 hPa -
Pluja: 0 mm    
Historical Graphs
 
 
Tabular Data for Noviembre 10, 2017
Time Temperature Dew Point Pressure Wind Wind Speed Wind Gust Humidity Rainfall Rate (Hourly) solar Conditions
-17.8 °C -17.8 °C 0 hPa Calm     Humidity % 0 mm SolarRadiationWatts/m^2 W/m2 Conditions
00:04 -13.8 °C -15.9 °C 34841.9 hPa NW 33.6 km/h 33.6 km/h 76 % 0 mm 0.0 W/m2 CLR
00:09 -13.8 °C -15.9 °C 34841.9 hPa WNW 35.7 km/h 35.7 km/h 76 % 0 mm 0.0 W/m2 CLR
00:14 -13.8 °C -15.9 °C 34852.1 hPa NW 36.2 km/h 36.2 km/h 76 % 0 mm 0.0 W/m2 CLR
00:19 -13.8 °C -15.9 °C 34852.1 hPa WNW 36.2 km/h 36.2 km/h 76 % 0 mm 0.0 W/m2 CLR
00:24 -13.8 °C -16.1 °C 34852.1 hPa WNW 41.7 km/h 41.7 km/h 75 % 0 mm 0.0 W/m2 CLR
00:30 -13.8 °C -16.1 °C 34865.6 hPa WNW 29.8 km/h 29.8 km/h 75 % 0 mm 0.0 W/m2 CLR
00:35 -14.1 °C -16.3 °C 34865.6 hPa WNW 29.8 km/h 29.8 km/h 76 % 0 mm 0.0 W/m2 CLR
00:40 -14.1 °C -16.3 °C 34865.6 hPa WSW 29.8 km/h 29.8 km/h 76 % 0 mm 0.0 W/m2 CLR
00:45 -14.1 °C -16.3 °C 34865.6 hPa West 29.8 km/h 29.8 km/h 76 % 0 mm 0.0 W/m2 CLR
00:50 -14.1 °C -16.3 °C 34852.1 hPa NW 18.2 km/h 18.3 km/h 76 % 0 mm 0.0 W/m2 CLR
00:55 -14.1 °C -16.3 °C 34852.1 hPa WSW 15 km/h 15 km/h 76 % 0 mm 0.0 W/m2 CLR
01:00 -14.1 °C -16.3 °C 34852.1 hPa West 20.8 km/h 20.8 km/h 76 % 0 mm 0.0 W/m2 CLR
01:05 -14.1 °C -16.2 °C 34852.1 hPa WNW 29.8 km/h 29.8 km/h 77 % 0 mm 0.0 W/m2 CLR
01:10 -14.1 °C -16.3 °C 34852.1 hPa West 29.8 km/h 29.8 km/h 76 % 0 mm 0.0 W/m2 CLR
01:15 -14.1 °C -16.3 °C 34852.1 hPa West 17.9 km/h 17.9 km/h 76 % 0 mm 0.0 W/m2 CLR
01:20 -14.1 °C -16.3 °C 34852.1 hPa West 15.6 km/h 15.6 km/h 76 % 0 mm 0.0 W/m2 CLR
01:25 -14.4 °C -16.6 °C 34852.1 hPa WNW 23.8 km/h 23.8 km/h 76 % 0 mm 0.0 W/m2 CLR
01:30 -14.1 °C -16.3 °C 34852.1 hPa West 25.9 km/h 25.9 km/h 76 % 0 mm 0.0 W/m2 CLR
01:35 -14.1 °C -16.3 °C 34852.1 hPa West 29.8 km/h 29.8 km/h 76 % 0 mm 0.0 W/m2 CLR
01:40 -14.4 °C -16.6 °C 34852.1 hPa West 26.9 km/h 26.9 km/h 76 % 0 mm 0.0 W/m2 CLR
01:45 -14.4 °C -16.6 °C 34852.1 hPa WNW 20.8 km/h 20.8 km/h 76 % 0 mm 0.0 W/m2 CLR
01:50 -14.4 °C -16.6 °C 34852.1 hPa West 17.9 km/h 17.9 km/h 76 % 0 mm 0.0 W/m2 CLR
01:55 -14.4 °C -16.6 °C 34852.1 hPa West 12.9 km/h 12.9 km/h 76 % 0 mm 0.0 W/m2 CLR
02:00 -14.4 °C -16.6 °C 34852.1 hPa West 23.8 km/h 23.8 km/h 76 % 0 mm 0.0 W/m2 CLR
02:06 -14.4 °C -16.6 °C 34852.1 hPa WNW 26.9 km/h 26.9 km/h 76 % 0 mm 0.0 W/m2 CLR
02:11 -14.4 °C -16.6 °C 34852.1 hPa West 23.3 km/h 23.3 km/h 76 % 0 mm 0.0 W/m2 CLR
02:16 -14.1 °C -16.3 °C 34852.1 hPa WNW 26.9 km/h 26.9 km/h 76 % 0 mm 0.0 W/m2 CLR
02:21 -14.1 °C -16.3 °C 34841.9 hPa WNW 29.8 km/h 29.8 km/h 76 % 0 mm 0.0 W/m2 CLR
02:26 -14.4 °C -16.6 °C 34841.9 hPa West 38.8 km/h 38.8 km/h 76 % 0 mm 0.0 W/m2 CLR
02:31 -14.4 °C -16.7 °C 34841.9 hPa WNW 35.7 km/h 35.7 km/h 75 % 0 mm 0.0 W/m2 CLR
02:36 -14.4 °C -16.8 °C 34841.9 hPa WNW 36.2 km/h 36.2 km/h 74 % 0 mm 0.0 W/m2 CLR
02:41 -14.1 °C -16.5 °C 34841.9 hPa West 29.8 km/h 29.8 km/h 74 % 0 mm 0.0 W/m2 CLR
02:46 -14.1 °C -16.5 °C 34841.9 hPa WNW 38.8 km/h 38.8 km/h 74 % 0 mm 0.0 W/m2 CLR
02:51 -14.1 °C -16.5 °C 34841.9 hPa NW 41.7 km/h 41.7 km/h 74 % 0 mm 0.0 W/m2 CLR
02:56 -14.1 °C -16.5 °C 34841.9 hPa WNW 41.7 km/h 41.7 km/h 74 % 0 mm 0.0 W/m2 CLR
03:01 -14.1 °C -16.6 °C 34841.9 hPa WNW 38.8 km/h 38.8 km/h 73 % 0 mm 0.0 W/m2 CLR
03:06 -14.1 °C -16.5 °C 34841.9 hPa WNW 29.8 km/h 29.8 km/h 74 % 0 mm 0.0 W/m2 CLR
03:11 -14.1 °C -16.5 °C 34841.9 hPa WNW 35.7 km/h 35.7 km/h 74 % 0 mm 0.0 W/m2 CLR
03:16 -14.1 °C -16.5 °C 34841.9 hPa WNW 44.7 km/h 44.7 km/h 74 % 0 mm 0.0 W/m2 CLR
03:21 -14.4 °C -16.8 °C 34841.9 hPa NW 47.6 km/h 47.6 km/h 74 % 0 mm 0.0 W/m2 CLR
03:26 -14.1 °C -16.6 °C 34841.9 hPa NW 41.7 km/h 41.7 km/h 73 % 0 mm 0.0 W/m2 CLR
03:31 -14.1 °C -16.6 °C 34841.9 hPa WNW 35.7 km/h 35.7 km/h 73 % 0 mm 0.0 W/m2 CLR
03:36 -14.1 °C -16.6 °C 34841.9 hPa WNW 35.7 km/h 35.7 km/h 73 % 0 mm 0.0 W/m2 CLR
03:41 -14.1 °C -16.6 °C 34841.9 hPa WNW 29.8 km/h 29.8 km/h 73 % 0 mm 0.0 W/m2 CLR
03:46 -14.1 °C -16.6 °C 34841.9 hPa WNW 44.7 km/h 44.7 km/h 73 % 0 mm 0.0 W/m2 CLR
03:51 -14.1 °C -16.6 °C 34841.9 hPa NW 35.7 km/h 35.7 km/h 73 % 0 mm 0.0 W/m2 CLR
03:56 -14.1 °C -16.6 °C 34841.9 hPa NW 47.6 km/h 47.6 km/h 73 % 0 mm 0.0 W/m2 CLR
04:01 -14.1 °C -16.6 °C 34841.9 hPa NW 44.7 km/h 44.7 km/h 73 % 0 mm 0.0 W/m2 CLR
04:06 -14.1 °C -16.6 °C 34841.9 hPa West 38.8 km/h 38.8 km/h 73 % 0 mm 0.0 W/m2 CLR
04:11 -14.1 °C -16.6 °C 34841.9 hPa NW 38.8 km/h 38.8 km/h 73 % 0 mm 0.0 W/m2 CLR
04:16 -14.1 °C -16.6 °C 34841.9 hPa WNW 38.8 km/h 38.8 km/h 73 % 0 mm 0.0 W/m2 CLR
04:21 -14.1 °C -16.6 °C 34841.9 hPa West 26.9 km/h 26.9 km/h 73 % 0 mm 0.0 W/m2 CLR
04:26 -14.1 °C -16.6 °C 34841.9 hPa WNW 26.9 km/h 26.9 km/h 73 % 0 mm 0.0 W/m2 CLR
04:31 -14.1 °C -16.6 °C 34841.9 hPa West 29.8 km/h 29.8 km/h 73 % 0 mm 0.0 W/m2 CLR
04:36 -14.1 °C -16.6 °C 34841.9 hPa West 32.8 km/h 32.8 km/h 73 % 0 mm 0.0 W/m2 CLR
04:41 -14.4 °C -16.9 °C 34841.9 hPa West 29.8 km/h 29.8 km/h 73 % 0 mm 0.0 W/m2 CLR
04:46 -14.1 °C -16.6 °C 34841.9 hPa West 29.8 km/h 29.8 km/h 73 % 0 mm 0.0 W/m2 CLR
04:51 -14.4 °C -16.9 °C 34841.9 hPa West 29.8 km/h 29.8 km/h 73 % 0 mm 0.0 W/m2 CLR
04:56 -14.4 °C -16.9 °C 34841.9 hPa WNW 29.8 km/h 29.8 km/h 73 % 0 mm 0.0 W/m2 CLR
05:01 -14.4 °C -16.9 °C 34841.9 hPa West 15.6 km/h 15.6 km/h 73 % 0 mm 0.0 W/m2 CLR
05:06 -14.4 °C -16.8 °C 34841.9 hPa WNW 29.8 km/h 29.8 km/h 74 % 0 mm 0.0 W/m2 CLR
05:11 -14.4 °C -16.8 °C 34841.9 hPa West 29.8 km/h 29.8 km/h 74 % 0 mm 0.0 W/m2 CLR
05:16 -14.7 °C -17.1 °C 34841.9 hPa West 29.8 km/h 29.8 km/h 74 % 0 mm 0.0 W/m2 CLR
05:21 -14.7 °C -17.2 °C 34841.9 hPa West 23.8 km/h 23.8 km/h 73 % 0 mm 0.0 W/m2 CLR
05:26 -14.7 °C -17.1 °C 34841.9 hPa West 26.9 km/h 26.9 km/h 74 % 0 mm 0.0 W/m2 CLR
05:27 -14.7 °C -17.1 °C 34841.9 hPa West 26.9 km/h 26.9 km/h 74 % 0 mm 0.0 W/m2 CLR
05:32 -14.4 °C -16.8 °C 34841.9 hPa West 23.8 km/h 23.8 km/h 74 % 0 mm 0.0 W/m2 CLR
05:37 -14.4 °C -16.7 °C 34841.9 hPa West 29.8 km/h 29.8 km/h 75 % 0 mm 0.0 W/m2 CLR
05:42 -14.4 °C -16.7 °C 34841.9 hPa West 23.8 km/h 23.8 km/h 75 % 0 mm 0.0 W/m2 CLR
05:47 -14.4 °C -16.7 °C 34852.1 hPa WNW 29.8 km/h 29.8 km/h 75 % 0 mm 0.0 W/m2 CLR
05:52 -14.4 °C -16.7 °C 34852.1 hPa West 32.8 km/h 32.8 km/h 75 % 0 mm 0.0 W/m2 CLR
05:57 -14.4 °C -16.7 °C 34852.1 hPa West 26.9 km/h 26.9 km/h 75 % 0 mm 0.0 W/m2 CLR
06:02 -14.4 °C -16.6 °C 34852.1 hPa West 26.9 km/h 26.9 km/h 76 % 0 mm 0.0 W/m2 CLR
06:07 -14.4 °C -16.6 °C 34841.9 hPa WNW 26.9 km/h 26.9 km/h 76 % 0 mm 0.0 W/m2 CLR
06:12 -14.7 °C -16.8 °C 34841.9 hPa West 26.9 km/h 26.9 km/h 76 % 0 mm 0.0 W/m2 CLR
06:17 -14.7 °C -16.8 °C 34841.9 hPa WNW 29.8 km/h 29.8 km/h 76 % 0 mm 0.0 W/m2 CLR
06:22 -14.7 °C -17.1 °C 34841.9 hPa WNW 32.8 km/h 32.8 km/h 74 % 0 mm 0.0 W/m2 CLR
06:27 -14.7 °C -17.1 °C 34841.9 hPa West 32.8 km/h 32.8 km/h 74 % 0 mm 0.0 W/m2 CLR
06:32 -14.7 °C -17.2 °C 34831.8 hPa WNW 29.8 km/h 29.8 km/h 73 % 0 mm 0.0 W/m2 CLR
06:37 -14.4 °C -16.9 °C 34841.9 hPa West 29.8 km/h 30.3 km/h 73 % 0 mm 0.0 W/m2 CLR
06:42 -14.7 °C -17.2 °C 34831.8 hPa NW 32.8 km/h 32.8 km/h 73 % 0 mm 0.0 W/m2 CLR
06:47 -14.7 °C -17.2 °C 34831.8 hPa WNW 31.1 km/h 31.1 km/h 73 % 0 mm 0.0 W/m2 CLR
06:52 -15 °C -17.4 °C 34831.8 hPa West 29.8 km/h 29.8 km/h 73 % 0 mm 0.0 W/m2 CLR
06:57 -14.7 °C -17.2 °C 34831.8 hPa WNW 26.9 km/h 26.9 km/h 73 % 0 mm 0.0 W/m2 CLR
07:02 -14.7 °C -17.2 °C 34831.8 hPa WNW 26.9 km/h 26.9 km/h 73 % 0 mm 0.0 W/m2 CLR
07:07 -14.7 °C -17.2 °C 34831.8 hPa West 31.1 km/h 31.1 km/h 73 % 0 mm 0.0 W/m2 CLR
07:12 -14.7 °C -17.2 °C 34831.8 hPa WNW 29.8 km/h 29.8 km/h 73 % 0 mm 0.0 W/m2 CLR
07:17 -14.7 °C -17.2 °C 34841.9 hPa WNW 29.8 km/h 29.8 km/h 73 % 0 mm 0.0 W/m2 CLR
07:22 -15 °C -17.4 °C 34841.9 hPa WNW 29.8 km/h 29.8 km/h 73 % 0 mm 0.0 W/m2 CLR
07:27 -15.3 °C -17.8 °C 34841.9 hPa West 29.8 km/h 29.8 km/h 73 % 0 mm 0.0 W/m2 CLR
07:32 -15.3 °C -17.8 °C 34841.9 hPa West 26.9 km/h 26.9 km/h 73 % 0 mm 0.0 W/m2 OVC
07:37 -15.3 °C -17.8 °C 34841.9 hPa West 20.9 km/h 20.9 km/h 73 % 0 mm 0.0 W/m2 OVC
07:42 -15.6 °C -18.1 °C 34852.1 hPa West 20.9 km/h 20.9 km/h 73 % 0 mm 5.0 W/m2 OVC
07:47 -15.6 °C -18.1 °C 34852.1 hPa West 23.8 km/h 23.8 km/h 73 % 0 mm 7.0 W/m2 OVC
07:52 -15.6 °C -18.1 °C 34852.1 hPa West 20.9 km/h 20.9 km/h 73 % 0 mm 9.0 W/m2 OVC
07:57 -15.9 °C -18.4 °C 34852.1 hPa WNW 17.9 km/h 17.9 km/h 73 % 0 mm 12.0 W/m2 OVC
08:02 -15.9 °C -18.4 °C 34852.1 hPa West 23.8 km/h 23.8 km/h 73 % 0 mm 14.0 W/m2 OVC
08:07 -16.2 °C -18.7 °C 34852.1 hPa WNW 29.8 km/h 29.8 km/h 73 % 0 mm 16.0 W/m2 OVC
08:12 -16.2 °C -18.8 °C 34852.1 hPa West 17.9 km/h 17.9 km/h 72 % 0 mm 21.0 W/m2 OVC
08:17 -16.2 °C -18.8 °C 34852.1 hPa NW 15 km/h 15 km/h 72 % 0 mm 28.0 W/m2 OVC
08:22 -16.2 °C -18.8 °C 34852.1 hPa NW 26.9 km/h 26.9 km/h 72 % 0 mm 37.0 W/m2 OVC
08:27 -15.9 °C -18.6 °C 34852.1 hPa WNW 29.8 km/h 29.8 km/h 71 % 0 mm 46.0 W/m2 OVC
08:32 -15.3 °C -18.1 °C 34852.1 hPa WNW 29.8 km/h 29.8 km/h 70 % 0 mm 49.0 W/m2 OVC
08:37 -14.7 °C -17.5 °C 34865.6 hPa WNW 29.8 km/h 29.8 km/h 70 % 0 mm 77.0 W/m2 OVC
08:42 -14.4 °C -17.3 °C 34865.6 hPa West 29.8 km/h 29.8 km/h 69 % 0 mm 93.0 W/m2 OVC
08:47 -14.1 °C -16.9 °C 34875.8 hPa WNW 29.8 km/h 29.8 km/h 70 % 0 mm 95.0 W/m2 BKN
08:52 -14.1 °C -17 °C 34875.8 hPa WNW 29.8 km/h 29.8 km/h 69 % 0 mm 123.0 W/m2 CLR
08:57 -14.1 °C -17 °C 34875.8 hPa WNW 29.8 km/h 29.8 km/h 69 % 0 mm 137.0 W/m2 CLR
09:02 -13.8 °C -16.7 °C 34875.8 hPa WNW 29.8 km/h 29.8 km/h 69 % 0 mm 156.0 W/m2 CLR
09:07 -13.4 °C -16.4 °C 34875.8 hPa West 28.5 km/h 28.5 km/h 69 % 0 mm 171.0 W/m2 CLR
09:12 -13.4 °C -16.4 °C 34875.8 hPa WNW 29.8 km/h 29.8 km/h 69 % 0 mm 186.0 W/m2 CLR
09:17 -13.4 °C -16.6 °C 34875.8 hPa NW 23.8 km/h 23.8 km/h 68 % 0 mm 149.0 W/m2 CLR
09:22 -13.2 °C -16.2 °C 34875.8 hPa NW 36.2 km/h 36.2 km/h 68 % 0 mm 206.0 W/m2 CLR
09:27 -13.2 °C -16.2 °C 34875.8 hPa NW 35.7 km/h 35.7 km/h 68 % 0 mm 234.0 W/m2 CLR
09:32 -13.2 °C -16.2 °C 34875.8 hPa WNW 32.8 km/h 32.8 km/h 68 % 0 mm 250.0 W/m2 CLR
09:37 -12.8 °C -15.9 °C 34875.8 hPa NW 29.8 km/h 29.8 km/h 68 % 0 mm 262.0 W/m2 CLR
09:42 -12.8 °C -15.9 °C 34875.8 hPa NW 35.7 km/h 35.7 km/h 68 % 0 mm 274.0 W/m2 CLR
09:47 -12.8 °C -16.1 °C 34889.3 hPa NW 29.8 km/h 29.8 km/h 67 % 0 mm 288.0 W/m2 CLR
09:52 -12.8 °C -16.1 °C 34889.3 hPa WNW 35.7 km/h 35.7 km/h 67 % 0 mm 299.0 W/m2 CLR
09:57 -12.6 °C -15.7 °C 34889.3 hPa NNW 26.9 km/h 26.9 km/h 68 % 0 mm 311.0 W/m2 CLR
10:02 -12.6 °C -15.8 °C 34889.3 hPa NW 41.7 km/h 41.7 km/h 67 % 0 mm 323.0 W/m2 CLR
10:07 -12.6 °C -15.8 °C 34889.3 hPa NNW 29.8 km/h 29.8 km/h 67 % 0 mm 336.0 W/m2 CLR
10:12 -12.6 °C -15.8 °C 34889.3 hPa NNW 32.8 km/h 32.8 km/h 67 % 0 mm 346.0 W/m2 CLR
10:17 -12.2 °C -15.7 °C 34889.3 hPa NW 41.7 km/h 41.7 km/h 65 % 0 mm 357.0 W/m2 CLR
10:22 -12.2 °C -15.7 °C 34889.3 hPa NNW 35.7 km/h 35.7 km/h 65 % 0 mm 367.0 W/m2 CLR
10:27 -12.2 °C -15.8 °C 34899.5 hPa WNW 29.8 km/h 29.8 km/h 64 % 0 mm 378.0 W/m2 CLR
10:32 -12.2 °C -15.8 °C 34889.3 hPa NW 29.8 km/h 29.8 km/h 64 % 0 mm 388.0 W/m2 CLR
10:37 -12.2 °C -15.8 °C 34899.5 hPa NW 32.8 km/h 32.8 km/h 64 % 0 mm 397.0 W/m2 CLR
10:42 -11.9 °C -15.7 °C 34899.5 hPa NNW 29.8 km/h 29.8 km/h 63 % 0 mm 406.0 W/m2 CLR
10:47 -11.9 °C -15.7 °C 34899.5 hPa NW 29.8 km/h 29.8 km/h 63 % 0 mm 415.0 W/m2 CLR
10:52 -11.9 °C -15.9 °C 34899.5 hPa NW 38.8 km/h 38.8 km/h 61 % 0 mm 425.0 W/m2 CLR
10:57 -11.9 °C -16.1 °C 34899.5 hPa NNW 38.8 km/h 38.8 km/h 60 % 0 mm 436.0 W/m2 CLR
11:02 -11.6 °C -15.8 °C 34899.5 hPa NW 29.8 km/h 29.8 km/h 60 % 0 mm 446.0 W/m2 CLR
11:07 -11.6 °C -15.8 °C 34899.5 hPa North 41.7 km/h 41.7 km/h 60 % 0 mm 367.0 W/m2 CLR
11:12 -11.6 °C -15.6 °C 34899.5 hPa NW 26.9 km/h 26.9 km/h 61 % 0 mm 448.0 W/m2 CLR
11:17 -11.6 °C -15.6 °C 34899.5 hPa North 38.8 km/h 38.8 km/h 61 % 0 mm 464.0 W/m2 CLR
11:22 -11.3 °C -15.3 °C 34899.5 hPa NW 41.7 km/h 41.7 km/h 61 % 0 mm 471.0 W/m2 CLR
11:27 -11.3 °C -15.4 °C 34899.5 hPa NW 44.7 km/h 44.7 km/h 60 % 0 mm 482.0 W/m2 CLR
11:33 -11 °C -15.2 °C 34889.3 hPa WNW 29.8 km/h 29.8 km/h 60 % 0 mm 457.0 W/m2 CLR
11:38 -11 °C -15.3 °C 34889.3 hPa North 29.8 km/h 29.8 km/h 59 % 0 mm 475.0 W/m2 CLR
11:43 -11 °C -15.6 °C 34889.3 hPa NW 29.8 km/h 29.8 km/h 57 % 0 mm 473.0 W/m2 CLR
11:48 -11 °C -15.6 °C 34889.3 hPa NNW 38.8 km/h 38.8 km/h 57 % 0 mm 485.0 W/m2 CLR
11:53 -11 °C -15.6 °C 34889.3 hPa NW 29.8 km/h 29.8 km/h 57 % 0 mm 487.0 W/m2 CLR
11:58 -10.7 °C -15.3 °C 34875.8 hPa NW 29.8 km/h 29.8 km/h 57 % 0 mm 508.0 W/m2 CLR
12:03 -10.7 °C -15.6 °C 34875.8 hPa NW 44.7 km/h 44.7 km/h 55 % 0 mm 510.0 W/m2 CLR
12:08 -10.7 °C -15.4 °C 34875.8 hPa NW 35.7 km/h 35.7 km/h 56 % 0 mm 513.0 W/m2 CLR
12:13 -10.7 °C -15.4 °C 34875.8 hPa NW 32.8 km/h 32.8 km/h 56 % 0 mm 515.0 W/m2 CLR
12:18 -10.7 °C -15.4 °C 34865.6 hPa NNW 36.2 km/h 36.2 km/h 56 % 0 mm 517.0 W/m2 CLR
12:23 -10.4 °C -15.2 °C 34865.6 hPa WNW 23.8 km/h 23.8 km/h 56 % 0 mm 519.0 W/m2 CLR
12:28 -10.4 °C -15.3 °C 34865.6 hPa NW 31.1 km/h 31.1 km/h 55 % 0 mm 520.0 W/m2 CLR
12:33 -10.4 °C -15.2 °C 34865.6 hPa NNW 32.8 km/h 32.8 km/h 56 % 0 mm 522.0 W/m2 CLR
12:38 -10.1 °C -14.9 °C 34865.6 hPa North 35.7 km/h 35.7 km/h 56 % 0 mm 524.0 W/m2 CLR
12:43 -9.8 °C -14.9 °C 34865.6 hPa North 38.8 km/h 38.8 km/h 54 % 0 mm 524.0 W/m2 CLR
12:48 -9.8 °C -14.9 °C 34852.1 hPa NNW 41.7 km/h 41.7 km/h 54 % 0 mm 526.0 W/m2 CLR
12:53 -9.8 °C -15 °C 34852.1 hPa NNW 44.7 km/h 44.7 km/h 53 % 0 mm 527.0 W/m2 CLR
12:58 -9.8 °C -15 °C 34852.1 hPa NW 41.7 km/h 41.7 km/h 53 % 0 mm 534.0 W/m2 CLR
13:03 -10.1 °C -15.3 °C 34852.1 hPa NW 35.7 km/h 35.7 km/h 53 % 0 mm 541.0 W/m2 CLR
13:08 -9.8 °C -15 °C 34841.9 hPa NW 29.8 km/h 29.8 km/h 53 % 0 mm 552.0 W/m2 CLR
13:13 -9.4 °C -14.6 °C 34841.9 hPa NW 38.8 km/h 38.8 km/h 54 % 0 mm 566.0 W/m2 CLR
13:18 -9.4 °C -14.9 °C 34841.9 hPa North 35.7 km/h 35.7 km/h 52 % 0 mm 568.0 W/m2 CLR
13:23 -9.4 °C -14.9 °C 34831.8 hPa NNW 35.7 km/h 35.7 km/h 52 % 0 mm 598.0 W/m2 CLR
13:28 -9.4 °C -14.9 °C 34831.8 hPa North 28.5 km/h 28.5 km/h 52 % 0 mm 580.0 W/m2 CLR
13:33 -8.8 °C -14.5 °C 34831.8 hPa NNW 29.8 km/h 29.8 km/h 51 % 0 mm 468.0 W/m2 CLR
13:38 -9.1 °C -14.8 °C 34818.2 hPa NNW 29.8 km/h 29.8 km/h 51 % 0 mm 316.0 W/m2 CLR
13:43 -9.4 °C -14.9 °C 34818.2 hPa NNW 35.7 km/h 35.7 km/h 52 % 0 mm 302.0 W/m2 CLR
13:48 -9.1 °C -14.6 °C 34818.2 hPa NW 35.7 km/h 35.7 km/h 52 % 0 mm 383.0 W/m2 CLR
13:53 -8.8 °C -14.2 °C 34818.2 hPa NNW 47.6 km/h 47.6 km/h 53 % 0 mm 464.0 W/m2 CLR
13:58 -8.8 °C -14.2 °C 34818.2 hPa North 44.7 km/h 44.7 km/h 53 % 0 mm 387.0 W/m2 CLR
14:03 -8.8 °C -14 °C 34808.1 hPa North 50.7 km/h 50.7 km/h 54 % 0 mm 431.0 W/m2 CLR
14:08 -8.8 °C -14 °C 34808.1 hPa NW 36.2 km/h 36.2 km/h 54 % 0 mm 318.0 W/m2 CLR
14:13 -9.1 °C -14.1 °C 34808.1 hPa NNW 41.4 km/h 41.4 km/h 55 % 0 mm 334.0 W/m2 CLR
14:18 -9.1 °C -14 °C 34808.1 hPa North 41.4 km/h 41.4 km/h 56 % 0 mm 309.0 W/m2 CLR
14:23 -9.1 °C -13.8 °C 34808.1 hPa North 36.2 km/h 36.2 km/h 57 % 0 mm 271.0 W/m2 CLR
14:28 -9.1 °C -13.8 °C 34808.1 hPa NNW 47.6 km/h 47.6 km/h 57 % 0 mm 253.0 W/m2 CLR
14:33 -9.1 °C -13.7 °C 34808.1 hPa North 38.8 km/h 38.8 km/h 58 % 0 mm 237.0 W/m2 CLR
14:38 -9.4 °C -14 °C 34808.1 hPa NNW 41.7 km/h 41.7 km/h 58 % 0 mm 309.0 W/m2 CLR
14:43 -9.1 °C -13.8 °C 34808.1 hPa North 35.7 km/h 35.7 km/h 57 % 0 mm 302.0 W/m2 CLR
14:48 -9.1 °C -13.8 °C 34808.1 hPa NW 23.8 km/h 23.8 km/h 57 % 0 mm 260.0 W/m2 CLR
14:53 -9.1 °C -13.8 °C 34808.1 hPa NNW 47.6 km/h 47.6 km/h 57 % 0 mm 269.0 W/m2 CLR
14:58 -9.1 °C -13.8 °C 34808.1 hPa NNW 47.6 km/h 47.6 km/h 57 % 0 mm 244.0 W/m2 CLR
15:03 -9.1 °C -14 °C 34797.9 hPa North 47.6 km/h 47.6 km/h 56 % 0 mm 192.0 W/m2 CLR
15:08 -9.1 °C -14 °C 34797.9 hPa NW 38.8 km/h 38.8 km/h 56 % 0 mm 218.0 W/m2 CLR
15:13 -9.1 °C -14 °C 34797.9 hPa NNW 38.8 km/h 38.8 km/h 56 % 0 mm 195.0 W/m2 CLR
15:18 -9.1 °C -14.1 °C 34797.9 hPa NNW 50.7 km/h 50.7 km/h 55 % 0 mm 188.0 W/m2 CLR
15:23 -9.1 °C -14 °C 34797.9 hPa NW 41.7 km/h 41.7 km/h 56 % 0 mm 202.0 W/m2 CLR
15:28 -9.1 °C -13.8 °C 34797.9 hPa NNW 29.8 km/h 29.8 km/h 57 % 0 mm 186.0 W/m2 CLR
15:33 -9.1 °C -13.8 °C 34797.9 hPa NW 26.9 km/h 26.9 km/h 57 % 0 mm 156.0 W/m2 CLR
15:38 -9.1 °C -13.8 °C 34797.9 hPa North 44.7 km/h 44.7 km/h 57 % 0 mm 132.0 W/m2 CLR
15:43 -9.4 °C -14.1 °C 34808.1 hPa WNW 50.7 km/h 50.7 km/h 57 % 0 mm 128.0 W/m2 CLR
15:48 -9.4 °C -14.1 °C 34808.1 hPa NNW 38.8 km/h 38.8 km/h 57 % 0 mm 125.0 W/m2 CLR
15:53 -9.4 °C -14.1 °C 34808.1 hPa North 59.5 km/h 59.5 km/h 57 % 0 mm 113.0 W/m2 CLR
15:58 -9.4 °C -14 °C 34808.1 hPa North 44.7 km/h 44.7 km/h 58 % 0 mm 109.0 W/m2 CLR
16:03 -9.4 °C -14 °C 34808.1 hPa NNW 32.8 km/h 32.8 km/h 58 % 0 mm 111.0 W/m2 CLR
16:08 -9.4 °C -13.8 °C 34808.1 hPa NNW 38.8 km/h 38.8 km/h 59 % 0 mm 102.0 W/m2 CLR
16:13 -9.4 °C -13.8 °C 34808.1 hPa NW 36.2 km/h 36.2 km/h 59 % 0 mm 98.0 W/m2 CLR
16:18 -9.4 °C -13.8 °C 34808.1 hPa North 38.8 km/h 38.8 km/h 59 % 0 mm 83.0 W/m2 CLR
16:23 -9.4 °C -13.7 °C 34808.1 hPa NNW 29.8 km/h 29.8 km/h 60 % 0 mm 84.0 W/m2 CLR
16:28 -9.8 °C -14 °C 34808.1 hPa NNW 29.8 km/h 29.8 km/h 60 % 0 mm 171.0 W/m2 CLR
16:33 -9.4 °C -13.8 °C 34808.1 hPa NNW 38.8 km/h 38.8 km/h 59 % 0 mm 137.0 W/m2 CLR
16:38 -9.4 °C -13.8 °C 34808.1 hPa NNW 29.8 km/h 29.8 km/h 59 % 0 mm 116.0 W/m2 CLR
16:43 -9.4 °C -13.8 °C 34818.2 hPa NNW 31.1 km/h 31.1 km/h 59 % 0 mm 105.0 W/m2 CLR
16:48 -9.4 °C -13.8 °C 34818.2 hPa North 44.7 km/h 44.7 km/h 59 % 0 mm 98.0 W/m2 CLR
16:49 -9.4 °C -13.8 °C 34818.2 hPa NNW 44.7 km/h 44.7 km/h 59 % 0 mm 98.0 W/m2 CLR
16:54 -9.4 °C -13.8 °C 34818.2 hPa North 38.8 km/h 38.8 km/h 59 % 0 mm 86.0 W/m2 FEW
16:59 -9.4 °C -13.8 °C 34818.2 hPa North 32.8 km/h 32.8 km/h 59 % 0 mm 77.0 W/m2 FEW
17:04 -9.4 °C -13.8 °C 34818.2 hPa NW 32.8 km/h 32.8 km/h 59 % 0 mm 76.0 W/m2 FEW
17:09 -9.4 °C -13.8 °C 34808.1 hPa NW 38.8 km/h 38.8 km/h 59 % 0 mm 65.0 W/m2 SCT
17:14 -9.4 °C -13.7 °C 34808.1 hPa NW 35.7 km/h 35.7 km/h 60 % 0 mm 63.0 W/m2 SCT
17:19 -9.4 °C -13.7 °C 34808.1 hPa NNW 44.7 km/h 44.7 km/h 60 % 0 mm 53.0 W/m2 SCT
17:24 -9.4 °C -13.7 °C 34808.1 hPa NW 50.7 km/h 50.7 km/h 60 % 0 mm 39.0 W/m2 BKN
17:29 -9.8 °C -14 °C 34808.1 hPa NW 29.8 km/h 29.8 km/h 60 % 0 mm 26.0 W/m2 BKN
17:34 -9.8 °C -14 °C 34818.2 hPa NNW 41.7 km/h 41.7 km/h 60 % 0 mm 16.0 W/m2 BKN
17:39 -9.8 °C -14 °C 34808.1 hPa NW 26.9 km/h 26.9 km/h 60 % 0 mm 7.0 W/m2 BKN
17:44 -9.8 °C -14 °C 34808.1 hPa WNW 26.9 km/h 26.9 km/h 60 % 0 mm 5.0 W/m2 OVC
17:49 -10.1 °C -14.3 °C 34808.1 hPa NW 38.8 km/h 38.8 km/h 60 % 0 mm 0.0 W/m2 OVC
17:54 -9.8 °C -13.9 °C 34808.1 hPa North 38.8 km/h 38.8 km/h 61 % 0 mm 0.0 W/m2 OVC
17:59 -9.8 °C -13.8 °C 34818.2 hPa NNW 44.7 km/h 44.7 km/h 62 % 0 mm 0.0 W/m2 CLR
18:04 -10.1 °C -14.1 °C 34808.1 hPa NW 41.4 km/h 41.4 km/h 62 % 0 mm 0.0 W/m2 CLR
18:09 -10.1 °C -13.9 °C 34818.2 hPa NW 35.7 km/h 35.7 km/h 63 % 0 mm 0.0 W/m2 CLR
18:14 -10.1 °C -13.8 °C 34818.2 hPa NNW 51.8 km/h 51.8 km/h 64 % 0 mm 0.0 W/m2 CLR
18:19 -10.1 °C -13.7 °C 34808.1 hPa NNW 50.7 km/h 50.7 km/h 65 % 0 mm 0.0 W/m2 CLR
18:24 -10.1 °C -13.7 °C 34818.2 hPa NW 38.8 km/h 38.8 km/h 65 % 0 mm 0.0 W/m2 CLR
18:29 -10.1 °C -13.8 °C 34818.2 hPa NNW 41.7 km/h 41.7 km/h 64 % 0 mm 0.0 W/m2 CLR
18:34 -10.1 °C -13.8 °C 34818.2 hPa NW 35.7 km/h 35.7 km/h 64 % 0 mm 0.0 W/m2 CLR
18:39 -10.1 °C -13.8 °C 34818.2 hPa NW 36.2 km/h 36.2 km/h 64 % 0 mm 0.0 W/m2 CLR
18:44 -10.1 °C -13.8 °C 34818.2 hPa NW 56.6 km/h 56.6 km/h 64 % 0 mm 0.0 W/m2 CLR
18:49 -10.1 °C -13.8 °C 34818.2 hPa NW 50.7 km/h 50.7 km/h 64 % 0 mm 0.0 W/m2 CLR
18:54 -10.4 °C -13.9 °C 34818.2 hPa NNW 57 km/h 57 km/h 65 % 0 mm 0.0 W/m2 CLR
18:59 -10.4 °C -13.9 °C 34818.2 hPa NNW 36.2 km/h 36.2 km/h 65 % 0 mm 0.0 W/m2 CLR
19:04 -10.4 °C -13.9 °C 34818.2 hPa WNW 38.8 km/h 38.8 km/h 65 % 0 mm 0.0 W/m2 CLR
19:09 -10.4 °C -13.8 °C 34818.2 hPa NW 32.8 km/h 32.8 km/h 66 % 0 mm 0.0 W/m2 CLR
19:14 -10.4 °C -13.8 °C 34818.2 hPa WNW 41.7 km/h 41.7 km/h 66 % 0 mm 0.0 W/m2 CLR
19:19 -10.4 °C -13.7 °C 34831.8 hPa NNW 36.2 km/h 36.2 km/h 67 % 0 mm 0.0 W/m2 CLR
19:24 -10.4 °C -13.7 °C 34818.2 hPa NW 44.7 km/h 44.7 km/h 67 % 0 mm 0.0 W/m2 CLR
19:29 -10.4 °C -13.7 °C 34831.8 hPa NW 74.5 km/h 74.5 km/h 67 % 0 mm 0.0 W/m2 CLR
19:34 -10.4 °C -13.7 °C 34831.8 hPa WNW 44.7 km/h 44.7 km/h 67 % 0 mm 0.0 W/m2 CLR
19:39 -10.4 °C -13.7 °C 34831.8 hPa WNW 53.6 km/h 53.6 km/h 67 % 0 mm 0.0 W/m2 CLR
19:44 -10.4 °C -13.7 °C 34831.8 hPa NW 32.8 km/h 32.8 km/h 67 % 0 mm 0.0 W/m2 CLR
19:49 -10.4 °C -13.7 °C 34831.8 hPa WNW 35.7 km/h 35.7 km/h 67 % 0 mm 0.0 W/m2 CLR
19:54 -10.4 °C -13.7 °C 34831.8 hPa WNW 44.7 km/h 44.7 km/h 67 % 0 mm 0.0 W/m2 CLR
19:59 -10.4 °C -13.7 °C 34841.9 hPa NNW 38.8 km/h 38.8 km/h 67 % 0 mm 0.0 W/m2 CLR
20:04 -10.4 °C -13.7 °C 34841.9 hPa NW 32.8 km/h 32.8 km/h 67 % 0 mm 0.0 W/m2 CLR
20:09 -10.4 °C -13.7 °C 34841.9 hPa NW 38.8 km/h 38.8 km/h 67 % 0 mm 0.0 W/m2 CLR
20:14 -10.4 °C -13.7 °C 34841.9 hPa NW 23.8 km/h 23.8 km/h 67 % 0 mm 0.0 W/m2 CLR
20:19 -10.7 °C -13.9 °C 34841.9 hPa NW 47.6 km/h 47.6 km/h 68 % 0 mm 0.0 W/m2 CLR
20:24 -10.4 °C -13.6 °C 34841.9 hPa NNW 44.1 km/h 44.1 km/h 68 % 0 mm 0.0 W/m2 CLR
20:29 -10.4 °C -13.6 °C 34841.9 hPa NW 31.1 km/h 31.1 km/h 68 % 0 mm 0.0 W/m2 CLR
20:34 -10.4 °C -13.6 °C 34841.9 hPa NW 50.7 km/h 50.7 km/h 68 % 0 mm 0.0 W/m2 CLR
20:39 -10.7 °C -13.9 °C 34841.9 hPa NW 33.6 km/h 33.6 km/h 68 % 0 mm 0.0 W/m2 CLR
20:44 -10.7 °C -13.9 °C 34841.9 hPa NNW 41.4 km/h 41.4 km/h 68 % 0 mm 0.0 W/m2 CLR
20:50 -10.7 °C -13.8 °C 34841.9 hPa WNW 35.7 km/h 35.7 km/h 69 % 0 mm 0.0 W/m2 CLR
20:54 -10.7 °C -13.8 °C 34841.9 hPa NW 50.7 km/h 50.7 km/h 69 % 0 mm 0.0 W/m2 CLR
21:00 -10.7 °C -13.8 °C 34841.9 hPa NW 50.7 km/h 50.7 km/h 69 % 0 mm 0.0 W/m2 CLR
21:05 -10.7 °C -13.8 °C 34852.1 hPa North 32.8 km/h 32.8 km/h 69 % 0 mm 0.0 W/m2 CLR
21:10 -10.7 °C -13.7 °C 34852.1 hPa NW 35.7 km/h 35.7 km/h 70 % 0 mm 0.0 W/m2 CLR
21:15 -10.7 °C -13.7 °C 34852.1 hPa NW 32.8 km/h 32.8 km/h 70 % 0 mm 0.0 W/m2 CLR
21:20 -10.7 °C -13.5 °C 34852.1 hPa NW 56.6 km/h 56.6 km/h 71 % 0 mm 0.0 W/m2 CLR
21:25 -10.7 °C -13.5 °C 34852.1 hPa North 36.2 km/h 36.2 km/h 71 % 0 mm 0.0 W/m2 CLR
21:30 -10.7 °C -13.4 °C 34852.1 hPa NNW 44.7 km/h 44.7 km/h 72 % 0 mm 0.0 W/m2 CLR
21:35 -10.7 °C -13.4 °C 34852.1 hPa NW 50.7 km/h 50.7 km/h 72 % 0 mm 0.0 W/m2 CLR
21:40 -10.7 °C -13.4 °C 34852.1 hPa NNW 50.7 km/h 50.7 km/h 72 % 0 mm 0.0 W/m2 CLR
21:45 -10.7 °C -13.3 °C 34852.1 hPa North 53.6 km/h 53.6 km/h 73 % 0 mm 0.0 W/m2 CLR
21:50 -10.7 °C -13.3 °C 34852.1 hPa North 65.5 km/h 65.5 km/h 73 % 0 mm 0.0 W/m2 CLR
21:55 -10.7 °C -13.3 °C 34852.1 hPa NNW 50.7 km/h 50.7 km/h 73 % 0 mm 0.0 W/m2 CLR
22:00 -10.7 °C -13.2 °C 34852.1 hPa NNW 53.6 km/h 53.6 km/h 74 % 0 mm 0.0 W/m2 CLR
22:05 -11 °C -13.5 °C 34852.1 hPa North 47.6 km/h 47.6 km/h 74 % 0 mm 0.0 W/m2 CLR
22:10 -11 °C -13.5 °C 34852.1 hPa NW 41.7 km/h 41.7 km/h 74 % 0 mm 0.0 W/m2 CLR
22:15 -11 °C -13.4 °C 34852.1 hPa NW 53.6 km/h 53.6 km/h 75 % 0 mm 0.0 W/m2 CLR
22:20 -11 °C -13.4 °C 34852.1 hPa North 53.6 km/h 53.6 km/h 75 % 0 mm 0.0 W/m2 CLR
22:25 -11 °C -13.4 °C 34852.1 hPa NW 44.7 km/h 44.7 km/h 75 % 0 mm 0.0 W/m2 CLR
22:30 -11 °C -13.4 °C 34852.1 hPa NNW 35.7 km/h 35.7 km/h 75 % 0 mm 0.0 W/m2 CLR
22:35 -11 °C -13.3 °C 34852.1 hPa NNW 53.6 km/h 53.6 km/h 76 % 0 mm 0.0 W/m2 CLR
22:40 -11 °C -13.3 °C 34852.1 hPa NNW 59.5 km/h 59.5 km/h 76 % 0 mm 0.0 W/m2 CLR
22:45 -11 °C -13.3 °C 34852.1 hPa NNW 41.7 km/h 41.7 km/h 76 % 0 mm 0.0 W/m2 CLR
22:50 -11 °C -13.2 °C 34852.1 hPa NW 50.7 km/h 50.7 km/h 77 % 0 mm 0.0 W/m2 CLR
22:55 -11 °C -13.2 °C 34852.1 hPa NW 44.7 km/h 44.7 km/h 77 % 0 mm 0.0 W/m2 CLR
23:00 -11 °C -13.2 °C 34852.1 hPa NW 41.7 km/h 41.7 km/h 77 % 0 mm 0.0 W/m2 CLR
23:05 -11 °C -13.2 °C 34852.1 hPa North 44.7 km/h 44.7 km/h 77 % 0 mm 0.0 W/m2 CLR
23:10 -11 °C -13.2 °C 34852.1 hPa NNW 47.6 km/h 47.6 km/h 77 % 0 mm 0.0 W/m2 CLR
23:15 -11 °C -13.2 °C 34841.9 hPa NW 50.7 km/h 50.7 km/h 77 % 0 mm 0.0 W/m2 CLR
23:20 -10.7 °C -12.9 °C 34841.9 hPa NNW 41.7 km/h 41.7 km/h 77 % 0 mm 0.0 W/m2 CLR
23:25 -10.7 °C -12.9 °C 34841.9 hPa NNW 50.7 km/h 50.7 km/h 77 % 0 mm 0.0 W/m2 CLR
23:30 -11 °C -13.2 °C 34841.9 hPa NNW 38.8 km/h 38.8 km/h 77 % 0 mm 0.0 W/m2 CLR
23:35 -11 °C -13.2 °C 34841.9 hPa NW 56.6 km/h 56.6 km/h 77 % 0 mm 0.0 W/m2 CLR
23:40 -11 °C -13.2 °C 34841.9 hPa NW 50.7 km/h 50.7 km/h 77 % 0 mm 0.0 W/m2 CLR
23:45 -11 °C -13.2 °C 34841.9 hPa NW 44.7 km/h 44.7 km/h 77 % 0 mm 0.0 W/m2 CLR
23:50 -11 °C -13.2 °C 34841.9 hPa NNW 38.8 km/h 38.8 km/h 77 % 0 mm 0.0 W/m2 CLR
23:55 -11 °C -13.2 °C 34841.9 hPa NNW 38.8 km/h 38.8 km/h 77 % 0 mm 0.0 W/m2 CLR
Lo Temps de Massalio
Compliments of Weather Underground - 1.25 mb